sensor_id;sensor_type;location;lat;lon;timestamp;pressure;altitude;pressure_sealevel;temperature;humidity
55171;BME280;41060;47.510;8.680;2022-11-23T00:02:21;95875.06;;;8.63;51.56
55171;BME280;41060;47.510;8.680;2022-11-23T00:04:47;95868.94;;;8.62;51.94
55171;BME280;41060;47.510;8.680;2022-11-23T00:07:16;95867.00;;;8.74;51.55
55171;BME280;41060;47.510;8.680;2022-11-23T00:09:43;95873.41;;;8.71;51.63
55171;BME280;41060;47.510;8.680;2022-11-23T00:12:09;95871.31;;;8.56;51.59
55171;BME280;41060;47.510;8.680;2022-11-23T00:14:39;95875.09;;;8.24;52.42
55171;BME280;41060;47.510;8.680;2022-11-23T00:17:07;95876.44;;;8.19;52.75
55171;BME280;41060;47.510;8.680;2022-11-23T00:19:33;95873.69;;;8.20;52.81
55171;BME280;41060;47.510;8.680;2022-11-23T00:22:00;95867.59;;;8.39;52.53
55171;BME280;41060;47.510;8.680;2022-11-23T00:24:27;95863.28;;;8.57;51.78
55171;BME280;41060;47.510;8.680;2022-11-23T00:26:53;95865.94;;;8.38;52.51
55171;BME280;41060;47.510;8.680;2022-11-23T00:29:20;95867.31;;;8.23;53.05
55171;BME280;41060;47.510;8.680;2022-11-23T00:31:48;95857.31;;;8.36;52.26
55171;BME280;41060;47.510;8.680;2022-11-23T00:34:15;95850.06;;;8.48;51.93
55171;BME280;41060;47.510;8.680;2022-11-23T00:36:44;95864.09;;;8.67;51.66
55171;BME280;41060;47.510;8.680;2022-11-23T00:39:11;95862.88;;;8.52;52.25
55171;BME280;41060;47.510;8.680;2022-11-23T00:41:38;95862.59;;;8.46;52.57
55171;BME280;41060;47.510;8.680;2022-11-23T00:44:04;95860.91;;;8.54;52.54
55171;BME280;41060;47.510;8.680;2022-11-23T00:46:32;95853.41;;;8.59;51.85
55171;BME280;41060;47.510;8.680;2022-11-23T00:49:00;95870.63;;;8.83;51.57
55171;BME280;41060;47.510;8.680;2022-11-23T00:51:28;95822.47;;;8.52;51.70
55171;BME280;41060;47.510;8.680;2022-11-23T00:53:56;95843.41;;;8.72;51.38
55171;BME280;41060;47.510;8.680;2022-11-23T00:56:24;95867.28;;;8.90;51.54
55171;BME280;41060;47.510;8.680;2022-11-23T00:58:52;95872.38;;;9.01;51.19
55171;BME280;41060;47.510;8.680;2022-11-23T01:01:21;95865.75;;;8.88;51.68
55171;BME280;41060;47.510;8.680;2022-11-23T01:03:52;95869.47;;;8.85;51.87
55171;BME280;41060;47.510;8.680;2022-11-23T01:06:22;95864.31;;;8.93;51.57
55171;BME280;41060;47.510;8.680;2022-11-23T01:08:50;95865.47;;;8.91;51.69
55171;BME280;41060;47.510;8.680;2022-11-23T01:11:18;95873.38;;;8.81;52.29
55171;BME280;41060;47.510;8.680;2022-11-23T01:13:46;95874.63;;;8.87;51.36
55171;BME280;41060;47.510;8.680;2022-11-23T01:16:15;95858.38;;;8.82;51.90
55171;BME280;41060;47.510;8.680;2022-11-23T01:18:41;95872.38;;;8.92;51.18
55171;BME280;41060;47.510;8.680;2022-11-23T01:21:09;95823.56;;;8.59;51.41
55171;BME280;41060;47.510;8.680;2022-11-23T01:23:37;95870.63;;;8.73;52.00
55171;BME280;41060;47.510;8.680;2022-11-23T01:26:04;95867.84;;;8.74;51.89
55171;BME280;41060;47.510;8.680;2022-11-23T01:28:31;95868.69;;;8.65;52.06
55171;BME280;41060;47.510;8.680;2022-11-23T01:31:03;95870.34;;;8.66;52.25
55171;BME280;41060;47.510;8.680;2022-11-23T01:33:31;95875.47;;;8.49;52.43
55171;BME280;41060;47.510;8.680;2022-11-23T01:35:57;95865.91;;;8.48;52.33
55171;BME280;41060;47.510;8.680;2022-11-23T01:38:24;95795.56;;;8.00;52.64
55171;BME280;41060;47.510;8.680;2022-11-23T01:40:52;95874.09;;;8.54;52.54
55171;BME280;41060;47.510;8.680;2022-11-23T01:43:19;95867.72;;;8.66;51.81
55171;BME280;41060;47.510;8.680;2022-11-23T01:45:55;95871.16;;;8.76;51.51
55171;BME280;41060;47.510;8.680;2022-11-23T01:48:25;95866.56;;;8.69;51.64
55171;BME280;41060;47.510;8.680;2022-11-23T01:50:52;95780.97;;;8.06;51.70
55171;BME280;41060;47.510;8.680;2022-11-23T01:53:19;95874.41;;;8.61;51.89
55171;BME280;41060;47.510;8.680;2022-11-23T01:55:47;95870.78;;;8.52;52.20
55171;BME280;41060;47.510;8.680;2022-11-23T01:58:18;95882.16;;;8.33;52.78
55171;BME280;41060;47.510;8.680;2022-11-23T02:00:49;95828.28;;;7.97;52.93
55171;BME280;41060;47.510;8.680;2022-11-23T02:03:16;95869.78;;;8.34;52.66
55171;BME280;41060;47.510;8.680;2022-11-23T02:05:46;95873.97;;;8.36;52.24
55171;BME280;41060;47.510;8.680;2022-11-23T02:08:17;95863.97;;;8.30;52.31
55171;BME280;41060;47.510;8.680;2022-11-23T02:10:44;95881.31;;;8.33;52.56
55171;BME280;41060;47.510;8.680;2022-11-23T02:13:12;95875.47;;;8.20;52.64
55171;BME280;41060;47.510;8.680;2022-11-23T02:15:41;95875.22;;;8.23;52.43
55171;BME280;41060;47.510;8.680;2022-11-23T02:18:11;95876.03;;;8.14;52.65
55171;BME280;41060;47.510;8.680;2022-11-23T02:20:40;95871.72;;;7.93;53.33
55171;BME280;41060;47.510;8.680;2022-11-23T02:23:14;95872.06;;;7.70;53.50
55171;BME280;41060;47.510;8.680;2022-11-23T02:25:54;95874.06;;;7.56;53.81
55171;BME280;41060;47.510;8.680;2022-11-23T02:28:25;95884.50;;;7.37;54.37
55171;BME280;41060;47.510;8.680;2022-11-23T02:30:54;95859.44;;;7.33;54.13
55171;BME280;41060;47.510;8.680;2022-11-23T02:33:21;95881.94;;;7.47;54.05
55171;BME280;41060;47.510;8.680;2022-11-23T02:35:51;95885.66;;;7.44;53.89
55171;BME280;41060;47.510;8.680;2022-11-23T02:38:20;95892.34;;;7.18;54.69
55171;BME280;41060;47.510;8.680;2022-11-23T02:40:48;95890.16;;;7.02;55.03
55171;BME280;41060;47.510;8.680;2022-11-23T02:43:15;95888.56;;;7.11;54.70
55171;BME280;41060;47.510;8.680;2022-11-23T02:45:46;95880.75;;;7.30;54.29
55171;BME280;41060;47.510;8.680;2022-11-23T02:48:15;95875.03;;;7.25;54.31
55171;BME280;41060;47.510;8.680;2022-11-23T02:50:42;95851.72;;;7.11;54.25
55171;BME280;41060;47.510;8.680;2022-11-23T02:53:09;95884.81;;;7.13;54.25
55171;BME280;41060;47.510;8.680;2022-11-23T02:55:36;95873.13;;;7.27;53.92
55171;BME280;41060;47.510;8.680;2022-11-23T02:58:05;95880.75;;;7.30;53.69
55171;BME280;41060;47.510;8.680;2022-11-23T03:00:34;95882.84;;;7.06;54.43
55171;BME280;41060;47.510;8.680;2022-11-23T03:03:01;95858.34;;;7.05;54.09
55171;BME280;41060;47.510;8.680;2022-11-23T03:05:28;95879.78;;;7.31;53.81
55171;BME280;41060;47.510;8.680;2022-11-23T03:07:55;95890.56;;;7.28;53.55
55171;BME280;41060;47.510;8.680;2022-11-23T03:10:22;95891.56;;;7.27;53.46
55171;BME280;41060;47.510;8.680;2022-11-23T03:12:52;95877.09;;;7.21;53.62
55171;BME280;41060;47.510;8.680;2022-11-23T03:15:19;95854.34;;;7.11;53.30
55171;BME280;41060;47.510;8.680;2022-11-23T03:17:48;95870.56;;;7.16;53.50
55171;BME280;41060;47.510;8.680;2022-11-23T03:20:14;95876.41;;;7.19;53.53
55171;BME280;41060;47.510;8.680;2022-11-23T03:22:41;95872.56;;;7.03;54.15
55171;BME280;41060;47.510;8.680;2022-11-23T03:25:08;95872.16;;;6.98;54.43
55171;BME280;41060;47.510;8.680;2022-11-23T03:27:36;95853.25;;;6.93;54.03
55171;BME280;41060;47.510;8.680;2022-11-23T03:30:05;95879.88;;;6.99;54.14
55171;BME280;41060;47.510;8.680;2022-11-23T03:32:32;95881.00;;;6.97;54.12
55171;BME280;41060;47.510;8.680;2022-11-23T03:35:00;95871.81;;;6.91;53.96
55171;BME280;41060;47.510;8.680;2022-11-23T03:37:27;95878.88;;;6.91;53.96
55171;BME280;41060;47.510;8.680;2022-11-23T03:39:54;95868.91;;;6.94;53.88
55171;BME280;41060;47.510;8.680;2022-11-23T03:42:21;95859.09;;;6.96;53.48
55171;BME280;41060;47.510;8.680;2022-11-23T03:44:48;95863.44;;;7.07;53.69
55171;BME280;41060;47.510;8.680;2022-11-23T03:47:14;95849.03;;;7.01;53.31
55171;BME280;41060;47.510;8.680;2022-11-23T03:49:41;95852.75;;;6.78;53.57
55171;BME280;41060;47.510;8.680;2022-11-23T03:52:09;95849.34;;;6.87;53.36
55171;BME280;41060;47.510;8.680;2022-11-23T03:54:36;95847.00;;;6.63;53.85
55171;BME280;41060;47.510;8.680;2022-11-23T03:57:02;95802.94;;;6.35;53.62
55171;BME280;41060;47.510;8.680;2022-11-23T03:59:29;95852.56;;;6.70;54.07
55171;BME280;41060;47.510;8.680;2022-11-23T04:01:56;95853.03;;;6.75;53.90
55171;BME280;41060;47.510;8.680;2022-11-23T04:04:22;95724.41;;;6.00;53.94
55171;BME280;41060;47.510;8.680;2022-11-23T04:06:49;95847.06;;;6.73;54.38
55171;BME280;41060;47.510;8.680;2022-11-23T04:09:19;95836.59;;;6.62;54.34
55171;BME280;41060;47.510;8.680;2022-11-23T04:11:46;95851.41;;;6.63;54.06
55171;BME280;41060;47.510;8.680;2022-11-23T04:14:13;95849.31;;;6.57;54.24
55171;BME280;41060;47.510;8.680;2022-11-23T04:16:39;95849.06;;;6.60;54.54
55171;BME280;41060;47.510;8.680;2022-11-23T04:19:06;95847.69;;;6.65;54.57
55171;BME280;41060;47.510;8.680;2022-11-23T04:21:33;95839.94;;;6.64;54.68
55171;BME280;41060;47.510;8.680;2022-11-23T04:24:03;95836.09;;;6.68;54.78
55171;BME280;41060;47.510;8.680;2022-11-23T04:26:31;95842.03;;;6.70;54.60
55171;BME280;41060;47.510;8.680;2022-11-23T04:28:58;95839.22;;;6.62;54.93
55171;BME280;41060;47.510;8.680;2022-11-23T04:31:25;95832.47;;;6.69;54.73
55171;BME280;41060;47.510;8.680;2022-11-23T04:33:53;95835.59;;;6.74;54.50
55171;BME280;41060;47.510;8.680;2022-11-23T04:36:20;95829.69;;;6.61;54.48
55171;BME280;41060;47.510;8.680;2022-11-23T04:38:47;95830.47;;;6.52;54.16
55171;BME280;41060;47.510;8.680;2022-11-23T04:41:15;95820.25;;;6.37;54.13
55171;BME280;41060;47.510;8.680;2022-11-23T04:43:46;95821.94;;;6.38;54.27
55171;BME280;41060;47.510;8.680;2022-11-23T04:46:13;95823.44;;;6.41;54.19
55171;BME280;41060;47.510;8.680;2022-11-23T04:48:40;95826.41;;;6.48;54.21
55171;BME280;41060;47.510;8.680;2022-11-23T04:51:07;95820.91;;;6.51;54.27
55171;BME280;41060;47.510;8.680;2022-11-23T04:53:33;95807.75;;;6.51;54.20
55171;BME280;41060;47.510;8.680;2022-11-23T04:56:00;95815.25;;;6.55;53.83
55171;BME280;41060;47.510;8.680;2022-11-23T04:58:27;95805.69;;;6.54;53.83
55171;BME280;41060;47.510;8.680;2022-11-23T05:00:56;95816.47;;;6.51;53.91
55171;BME280;41060;47.510;8.680;2022-11-23T05:03:22;95817.03;;;6.34;53.85
55171;BME280;41060;47.510;8.680;2022-11-23T05:05:50;95822.56;;;5.99;54.26
55171;BME280;41060;47.510;8.680;2022-11-23T05:08:17;95804.94;;;5.90;62.19
55171;BME280;41060;47.510;8.680;2022-11-23T05:10:44;95824.16;;;6.64;56.17
55171;BME280;41060;47.510;8.680;2022-11-23T05:13:11;95814.78;;;6.71;53.33
55171;BME280;41060;47.510;8.680;2022-11-23T05:15:37;95814.56;;;6.53;53.18
55171;BME280;41060;47.510;8.680;2022-11-23T05:18:06;95831.66;;;6.48;52.98
55171;BME280;41060;47.510;8.680;2022-11-23T05:20:35;95805.59;;;6.03;53.64
55171;BME280;41060;47.510;8.680;2022-11-23T05:23:02;95822.06;;;6.05;53.89
55171;BME280;41060;47.510;8.680;2022-11-23T05:25:32;95817.31;;;5.99;54.04
55171;BME280;41060;47.510;8.680;2022-11-23T05:27:59;95814.69;;;5.99;54.41
55171;BME280;41060;47.510;8.680;2022-11-23T05:30:26;95816.59;;;5.97;54.73
55171;BME280;41060;47.510;8.680;2022-11-23T05:32:52;95817.81;;;5.93;54.50
55171;BME280;41060;47.510;8.680;2022-11-23T05:35:21;95814.91;;;6.07;56.39
55171;BME280;41060;47.510;8.680;2022-11-23T05:37:47;95810.81;;;6.14;56.49
55171;BME280;41060;47.510;8.680;2022-11-23T05:40:14;95814.19;;;6.05;55.10
55171;BME280;41060;47.510;8.680;2022-11-23T05:42:41;95820.81;;;5.88;55.01
55171;BME280;41060;47.510;8.680;2022-11-23T05:45:08;95820.22;;;5.74;55.24
55171;BME280;41060;47.510;8.680;2022-11-23T05:47:35;95822.22;;;5.49;55.65
55171;BME280;41060;47.510;8.680;2022-11-23T05:50:03;95817.91;;;5.48;55.35
55171;BME280;41060;47.510;8.680;2022-11-23T05:52:31;95823.84;;;5.50;55.10
55171;BME280;41060;47.510;8.680;2022-11-23T05:54:57;95828.75;;;5.55;54.66
55171;BME280;41060;47.510;8.680;2022-11-23T05:57:24;95810.38;;;5.55;54.72
55171;BME280;41060;47.510;8.680;2022-11-23T05:59:51;95826.59;;;5.60;54.67
55171;BME280;41060;47.510;8.680;2022-11-23T06:02:17;95819.81;;;5.46;54.33
55171;BME280;41060;47.510;8.680;2022-11-23T06:04:44;95812.13;;;5.11;55.47
55171;BME280;41060;47.510;8.680;2022-11-23T06:07:11;95828.06;;;5.30;55.65
55171;BME280;41060;47.510;8.680;2022-11-23T06:09:41;95830.56;;;5.21;55.69
55171;BME280;41060;47.510;8.680;2022-11-23T06:12:08;95832.50;;;5.19;55.59
55171;BME280;41060;47.510;8.680;2022-11-23T06:14:36;95833.09;;;5.22;55.50
55171;BME280;41060;47.510;8.680;2022-11-23T06:17:03;95832.75;;;5.27;55.05
55171;BME280;41060;47.510;8.680;2022-11-23T06:19:30;95822.09;;;5.40;55.11
55171;BME280;41060;47.510;8.680;2022-11-23T06:21:57;95824.34;;;5.44;54.99
55171;BME280;41060;47.510;8.680;2022-11-23T06:24:24;95824.72;;;5.40;55.19
55171;BME280;41060;47.510;8.680;2022-11-23T06:26:52;95835.94;;;5.30;55.90
55171;BME280;41060;47.510;8.680;2022-11-23T06:29:19;95832.72;;;5.38;55.41
55171;BME280;41060;47.510;8.680;2022-11-23T06:31:46;95826.63;;;5.38;55.15
55171;BME280;41060;47.510;8.680;2022-11-23T06:34:16;95837.97;;;5.38;54.82
55171;BME280;41060;47.510;8.680;2022-11-23T06:36:42;95844.88;;;5.39;55.08
55171;BME280;41060;47.510;8.680;2022-11-23T06:39:11;95837.00;;;5.39;54.75
55171;BME280;41060;47.510;8.680;2022-11-23T06:41:38;95834.28;;;5.29;54.07
55171;BME280;41060;47.510;8.680;2022-11-23T06:44:06;95841.31;;;5.07;54.75
55171;BME280;41060;47.510;8.680;2022-11-23T06:46:33;95846.69;;;4.94;55.20
55171;BME280;41060;47.510;8.680;2022-11-23T06:49:00;95844.75;;;4.85;59.88
55171;BME280;41060;47.510;8.680;2022-11-23T06:51:27;95844.06;;;4.83;58.56
55171;BME280;41060;47.510;8.680;2022-11-23T06:53:56;95859.22;;;5.02;58.84
55171;BME280;41060;47.510;8.680;2022-11-23T06:56:23;95859.91;;;5.15;57.05
55171;BME280;41060;47.510;8.680;2022-11-23T06:58:50;95862.06;;;5.21;56.17
55171;BME280;41060;47.510;8.680;2022-11-23T07:01:18;95861.94;;;5.22;55.50
55171;BME280;41060;47.510;8.680;2022-11-23T07:03:45;95864.56;;;5.22;55.67
55171;BME280;41060;47.510;8.680;2022-11-23T07:06:11;95870.06;;;5.08;55.70
55171;BME280;41060;47.510;8.680;2022-11-23T07:08:38;95877.31;;;4.82;56.48
55171;BME280;41060;47.510;8.680;2022-11-23T07:11:10;95873.34;;;4.77;56.22
55171;BME280;41060;47.510;8.680;2022-11-23T07:13:37;95878.75;;;4.75;55.92
55171;BME280;41060;47.510;8.680;2022-11-23T07:16:04;95877.75;;;4.76;55.80
55171;BME280;41060;47.510;8.680;2022-11-23T07:18:33;95866.31;;;4.77;55.45
55171;BME280;41060;47.510;8.680;2022-11-23T07:20:59;95852.38;;;4.66;55.58
55171;BME280;41060;47.510;8.680;2022-11-23T07:23:26;95867.28;;;4.76;55.55
55171;BME280;41060;47.510;8.680;2022-11-23T07:25:55;95887.22;;;4.90;55.79
55171;BME280;41060;47.510;8.680;2022-11-23T07:28:21;95878.06;;;4.96;55.87
55171;BME280;41060;47.510;8.680;2022-11-23T07:30:48;95890.00;;;5.11;55.69
55171;BME280;41060;47.510;8.680;2022-11-23T07:33:16;95882.72;;;5.25;55.89
55171;BME280;41060;47.510;8.680;2022-11-23T07:35:43;95873.16;;;5.24;55.57
55171;BME280;41060;47.510;8.680;2022-11-23T07:38:10;95886.75;;;5.29;55.55
55171;BME280;41060;47.510;8.680;2022-11-23T07:40:38;95884.16;;;5.18;56.06
55171;BME280;41060;47.510;8.680;2022-11-23T07:43:05;95899.75;;;5.09;56.25
55171;BME280;41060;47.510;8.680;2022-11-23T07:45:33;95896.06;;;5.11;56.52
55171;BME280;41060;47.510;8.680;2022-11-23T07:48:03;95900.44;;;5.00;56.42
55171;BME280;41060;47.510;8.680;2022-11-23T07:50:30;95879.69;;;4.74;56.86
55171;BME280;41060;47.510;8.680;2022-11-23T07:53:00;95897.56;;;4.91;57.27
55171;BME280;41060;47.510;8.680;2022-11-23T07:55:28;95894.41;;;5.10;56.98
55171;BME280;41060;47.510;8.680;2022-11-23T07:57:56;95892.84;;;5.30;56.40
55171;BME280;41060;47.510;8.680;2022-11-23T08:00:24;95891.31;;;5.50;56.36
55171;BME280;41060;47.510;8.680;2022-11-23T08:02:56;95889.38;;;5.63;56.40
55171;BME280;41060;47.510;8.680;2022-11-23T08:05:22;95850.13;;;5.39;56.27
55171;BME280;41060;47.510;8.680;2022-11-23T08:07:58;95855.13;;;5.53;55.91
55171;BME280;41060;47.510;8.680;2022-11-23T08:10:26;95870.84;;;5.76;55.94
55171;BME280;41060;47.510;8.680;2022-11-23T08:12:56;95875.13;;;5.88;55.69
55171;BME280;41060;47.510;8.680;2022-11-23T08:15:22;95871.28;;;6.03;55.27
55171;BME280;41060;47.510;8.680;2022-11-23T08:17:54;95848.72;;;6.00;55.32
55171;BME280;41060;47.510;8.680;2022-11-23T08:20:20;95865.47;;;6.31;55.31
55171;BME280;41060;47.510;8.680;2022-11-23T08:22:47;95869.81;;;6.42;55.20
55171;BME280;41060;47.510;8.680;2022-11-23T08:25:16;95865.72;;;6.49;55.29
55171;BME280;41060;47.510;8.680;2022-11-23T08:27:42;95864.19;;;6.67;54.83
55171;BME280;41060;47.510;8.680;2022-11-23T08:30:09;95857.06;;;6.79;54.18
55171;BME280;41060;47.510;8.680;2022-11-23T08:32:36;95853.91;;;6.85;53.54
55171;BME280;41060;47.510;8.680;2022-11-23T08:35:05;95848.94;;;6.82;54.33
55171;BME280;41060;47.510;8.680;2022-11-23T08:37:32;95857.13;;;6.89;54.09
55171;BME280;41060;47.510;8.680;2022-11-23T08:39:59;95868.34;;;6.70;54.14
55171;BME280;41060;47.510;8.680;2022-11-23T08:42:27;95862.19;;;6.39;55.14
55171;BME280;41060;47.510;8.680;2022-11-23T08:44:53;95863.88;;;6.61;54.91
55171;BME280;41060;47.510;8.680;2022-11-23T08:47:21;95847.94;;;6.41;55.27
55171;BME280;41060;47.510;8.680;2022-11-23T08:49:47;95857.25;;;6.45;55.59
55171;BME280;41060;47.510;8.680;2022-11-23T08:52:14;95854.88;;;6.42;55.78
55171;BME280;41060;47.510;8.680;2022-11-23T08:54:41;95849.91;;;6.60;55.59
55171;BME280;41060;47.510;8.680;2022-11-23T08:57:07;95844.81;;;6.68;55.23
55171;BME280;41060;47.510;8.680;2022-11-23T08:59:35;95862.25;;;6.69;55.18
55171;BME280;41060;47.510;8.680;2022-11-23T09:02:02;95862.47;;;6.25;56.21
55171;BME280;41060;47.510;8.680;2022-11-23T09:04:29;95852.25;;;6.11;57.02
55171;BME280;41060;47.510;8.680;2022-11-23T09:06:56;95868.75;;;6.44;56.17
55171;BME280;41060;47.510;8.680;2022-11-23T09:09:23;95867.69;;;6.36;56.75
55171;BME280;41060;47.510;8.680;2022-11-23T09:11:49;95859.81;;;6.57;56.36
55171;BME280;41060;47.510;8.680;2022-11-23T09:14:18;95868.81;;;6.75;56.64
55171;BME280;41060;47.510;8.680;2022-11-23T09:16:48;95871.75;;;6.81;56.32
55171;BME280;41060;47.510;8.680;2022-11-23T09:19:14;95868.63;;;7.18;55.79
55171;BME280;41060;47.510;8.680;2022-11-23T09:21:41;95861.03;;;7.55;55.63
55171;BME280;41060;47.510;8.680;2022-11-23T09:24:09;95870.91;;;7.62;54.76
55171;BME280;41060;47.510;8.680;2022-11-23T09:26:36;95869.47;;;7.49;54.70
55171;BME280;41060;47.510;8.680;2022-11-23T09:29:03;95863.31;;;7.69;54.55
55171;BME280;41060;47.510;8.680;2022-11-23T09:31:30;95859.78;;;7.99;53.76
55171;BME280;41060;47.510;8.680;2022-11-23T09:33:58;95863.69;;;8.24;53.71
55171;BME280;41060;47.510;8.680;2022-11-23T09:36:24;95866.34;;;8.24;53.04
55171;BME280;41060;47.510;8.680;2022-11-23T09:38:52;95848.84;;;8.13;52.79
55171;BME280;41060;47.510;8.680;2022-11-23T09:41:42;95867.56;;;8.58;52.68
55171;BME280;41060;47.510;8.680;2022-11-23T09:44:21;95860.06;;;8.83;52.33
55171;BME280;41060;47.510;8.680;2022-11-23T09:46:58;95863.22;;;9.05;50.63
55171;BME280;41060;47.510;8.680;2022-11-23T09:49:40;95866.75;;;9.24;50.41
55171;BME280;41060;47.510;8.680;2022-11-23T09:52:13;95871.34;;;9.22;49.19
55171;BME280;41060;47.510;8.680;2022-11-23T09:54:44;95876.09;;;9.08;50.91
55171;BME280;41060;47.510;8.680;2022-11-23T09:57:13;95870.56;;;9.02;49.97
55171;BME280;41060;47.510;8.680;2022-11-23T09:59:45;95869.06;;;8.90;49.54
55171;BME280;41060;47.510;8.680;2022-11-23T10:02:19;95868.09;;;8.91;50.19
55171;BME280;41060;47.510;8.680;2022-11-23T10:04:49;95874.81;;;9.22;49.99
55171;BME280;41060;47.510;8.680;2022-11-23T10:07:30;95864.34;;;9.49;49.61
55171;BME280;41060;47.510;8.680;2022-11-23T10:10:09;95864.28;;;9.59;49.26
55171;BME280;41060;47.510;8.680;2022-11-23T10:12:47;95860.44;;;9.44;49.00
55171;BME280;41060;47.510;8.680;2022-11-23T10:15:23;95857.75;;;9.63;48.86
55171;BME280;41060;47.510;8.680;2022-11-23T10:18:12;95844.50;;;9.90;48.54
55171;BME280;41060;47.510;8.680;2022-11-23T10:20:52;95839.16;;;10.00;47.09
55171;BME280;41060;47.510;8.680;2022-11-23T10:23:38;95823.31;;;9.73;47.71
55171;BME280;41060;47.510;8.680;2022-11-23T10:26:13;95842.56;;;9.65;48.28
55171;BME280;41060;47.510;8.680;2022-11-23T10:28:41;95841.19;;;9.61;48.27
55171;BME280;41060;47.510;8.680;2022-11-23T10:31:12;95847.66;;;9.49;47.84
55171;BME280;41060;47.510;8.680;2022-11-23T10:33:46;95849.84;;;9.81;48.13
55171;BME280;41060;47.510;8.680;2022-11-23T10:36:17;95837.34;;;10.18;46.95
55171;BME280;41060;47.510;8.680;2022-11-23T10:38:46;95840.75;;;10.28;46.21
55171;BME280;41060;47.510;8.680;2022-11-23T10:41:14;95834.41;;;10.21;46.15
55171;BME280;41060;47.510;8.680;2022-11-23T10:43:44;95826.25;;;10.32;46.14
55171;BME280;41060;47.510;8.680;2022-11-23T10:46:29;95824.34;;;10.07;46.29
55171;BME280;41060;47.510;8.680;2022-11-23T10:49:15;95831.84;;;10.29;46.24
55171;BME280;41060;47.510;8.680;2022-11-23T10:51:53;95825.34;;;10.59;45.59
55171;BME280;41060;47.510;8.680;2022-11-23T10:54:23;95829.97;;;10.75;45.87
55171;BME280;41060;47.510;8.680;2022-11-23T10:56:52;95826.75;;;10.89;45.03
55171;BME280;41060;47.510;8.680;2022-11-23T10:59:28;95854.47;;;11.03;44.12
55171;BME280;41060;47.510;8.680;2022-11-23T11:04:41;95819.00;;;11.22;43.29
55171;BME280;41060;47.510;8.680;2022-11-23T11:07:18;95827.31;;;11.27;42.95
55171;BME280;41060;47.510;8.680;2022-11-23T11:09:48;95814.91;;;11.01;43.02
55171;BME280;41060;47.510;8.680;2022-11-23T11:12:16;95800.97;;;10.99;43.64
55171;BME280;41060;47.510;8.680;2022-11-23T11:14:54;95811.53;;;11.17;42.98
55171;BME280;41060;47.510;8.680;2022-11-23T11:17:24;95812.19;;;11.19;42.16
55171;BME280;41060;47.510;8.680;2022-11-23T11:19:51;95806.94;;;11.27;42.05
55171;BME280;41060;47.510;8.680;2022-11-23T11:22:34;95804.50;;;11.34;42.32
55171;BME280;41060;47.510;8.680;2022-11-23T11:25:02;95797.03;;;11.37;42.36
55171;BME280;41060;47.510;8.680;2022-11-23T11:27:31;95787.13;;;11.39;41.89
55171;BME280;41060;47.510;8.680;2022-11-23T11:30:03;95773.03;;;11.39;41.98
55171;BME280;41060;47.510;8.680;2022-11-23T11:32:40;95785.47;;;11.04;42.20
55171;BME280;41060;47.510;8.680;2022-11-23T11:35:14;95784.53;;;10.88;42.41
55171;BME280;41060;47.510;8.680;2022-11-23T11:37:45;95782.97;;;11.03;41.49
55171;BME280;41060;47.510;8.680;2022-11-23T11:40:18;95794.59;;;10.84;41.33
55171;BME280;41060;47.510;8.680;2022-11-23T11:42:51;95762.94;;;10.57;41.82
55171;BME280;41060;47.510;8.680;2022-11-23T11:45:24;95770.81;;;10.49;42.39
55171;BME280;41060;47.510;8.680;2022-11-23T11:47:56;95773.16;;;10.52;42.54
55171;BME280;41060;47.510;8.680;2022-11-23T11:50:26;95761.41;;;10.28;42.21
55171;BME280;41060;47.510;8.680;2022-11-23T11:53:01;95761.28;;;10.56;41.15
55171;BME280;41060;47.510;8.680;2022-11-23T11:55:35;95753.84;;;10.77;41.77
55171;BME280;41060;47.510;8.680;2022-11-23T11:58:09;95757.75;;;10.99;40.94
55171;BME280;41060;47.510;8.680;2022-11-23T12:00:37;95751.56;;;11.16;40.96
55171;BME280;41060;47.510;8.680;2022-11-23T12:03:11;95742.94;;;11.14;39.25
55171;BME280;41060;47.510;8.680;2022-11-23T12:05:46;95733.75;;;11.26;39.05
55171;BME280;41060;47.510;8.680;2022-11-23T12:08:21;95738.25;;;11.34;38.74
55171;BME280;41060;47.510;8.680;2022-11-23T12:10:52;95741.41;;;11.37;39.48
55171;BME280;41060;47.510;8.680;2022-11-23T12:13:21;95737.63;;;11.48;39.68
55171;BME280;41060;47.510;8.680;2022-11-23T12:15:53;95740.78;;;11.52;39.79
55171;BME280;41060;47.510;8.680;2022-11-23T12:18:31;95742.63;;;11.59;39.26
55171;BME280;41060;47.510;8.680;2022-11-23T12:21:03;95741.66;;;11.68;39.60
55171;BME280;41060;47.510;8.680;2022-11-23T12:23:42;95742.28;;;11.54;38.30
55171;BME280;41060;47.510;8.680;2022-11-23T12:26:18;95748.13;;;11.58;38.91
55171;BME280;41060;47.510;8.680;2022-11-23T12:29:03;95746.25;;;11.58;38.68
55171;BME280;41060;47.510;8.680;2022-11-23T12:31:39;95741.50;;;11.70;39.20
55171;BME280;41060;47.510;8.680;2022-11-23T12:34:29;95740.84;;;11.76;38.70
55171;BME280;41060;47.510;8.680;2022-11-23T12:37:19;95740.03;;;11.75;38.11
55171;BME280;41060;47.510;8.680;2022-11-23T12:40:02;95732.91;;;11.84;37.59
55171;BME280;41060;47.510;8.680;2022-11-23T12:42:38;95726.91;;;11.66;40.04
55171;BME280;41060;47.510;8.680;2022-11-23T12:48:19;95733.63;;;11.44;41.39
55171;BME280;41060;47.510;8.680;2022-11-23T12:50:54;95726.06;;;11.49;41.14
55171;BME280;41060;47.510;8.680;2022-11-23T12:53:40;95735.53;;;11.68;40.96
55171;BME280;41060;47.510;8.680;2022-11-23T12:56:20;95730.91;;;11.70;41.54
55171;BME280;41060;47.510;8.680;2022-11-23T12:58:52;95727.75;;;11.74;41.47
55171;BME280;41060;47.510;8.680;2022-11-23T13:01:23;95718.19;;;11.90;40.90
55171;BME280;41060;47.510;8.680;2022-11-23T13:04:06;95717.06;;;11.92;38.95
55171;BME280;41060;47.510;8.680;2022-11-23T13:06:52;95714.84;;;11.71;37.75
55171;BME280;41060;47.510;8.680;2022-11-23T13:09:38;95718.97;;;11.74;37.15
55171;BME280;41060;47.510;8.680;2022-11-23T13:12:25;95714.03;;;11.87;36.96
55171;BME280;41060;47.510;8.680;2022-11-23T13:15:04;95707.13;;;11.94;36.70
55171;BME280;41060;47.510;8.680;2022-11-23T13:17:43;95720.53;;;12.01;35.33
55171;BME280;41060;47.510;8.680;2022-11-23T13:20:25;95713.44;;;12.09;35.57
55171;BME280;41060;47.510;8.680;2022-11-23T13:22:56;95716.41;;;12.06;34.98
55171;BME280;41060;47.510;8.680;2022-11-23T13:25:25;95711.91;;;12.07;34.93
55171;BME280;41060;47.510;8.680;2022-11-23T13:27:59;95698.81;;;11.97;34.57